sensor_id;sensor_type;location;lat;lon;timestamp;pressure;altitude;pressure_sealevel;temperature;humidity
59608;BME280;45426;44.726;10.390;2023-04-25T00:02:10;99707.31;;;13.46;100.00
59608;BME280;45426;44.726;10.390;2023-04-25T00:04:35;99705.53;;;13.30;100.00
59608;BME280;45426;44.726;10.390;2023-04-25T00:07:03;99704.47;;;13.38;100.00
59608;BME280;45426;44.726;10.390;2023-04-25T00:09:28;99708.59;;;13.02;100.00
59608;BME280;45426;44.726;10.390;2023-04-25T00:11:54;99698.59;;;13.36;100.00
59608;BME280;45426;44.726;10.390;2023-04-25T00:14:19;99689.97;;;13.31;100.00
59608;BME280;45426;44.726;10.390;2023-04-25T00:16:44;99702.34;;;13.01;100.00
59608;BME280;45426;44.726;10.390;2023-04-25T00:19:10;99703.16;;;13.29;100.00
59608;BME280;45426;44.726;10.390;2023-04-25T00:21:36;99693.72;;;13.23;100.00
59608;BME280;45426;44.726;10.390;2023-04-25T00:24:06;99684.25;;;13.39;100.00
59608;BME280;45426;44.726;10.390;2023-04-25T00:26:31;99687.44;;;13.45;100.00
59608;BME280;45426;44.726;10.390;2023-04-25T00:28:57;99692.19;;;13.25;100.00
59608;BME280;45426;44.726;10.390;2023-04-25T00:31:22;99690.88;;;13.15;100.00
59608;BME280;45426;44.726;10.390;2023-04-25T00:33:48;99690.84;;;13.38;100.00
59608;BME280;45426;44.726;10.390;2023-04-25T00:36:13;99701.00;;;13.15;100.00
59608;BME280;45426;44.726;10.390;2023-04-25T00:38:39;99696.94;;;12.55;100.00
59608;BME280;45426;44.726;10.390;2023-04-25T00:41:07;99700.63;;;12.67;100.00
59608;BME280;45426;44.726;10.390;2023-04-25T00:43:33;99686.56;;;12.88;100.00
59608;BME280;45426;44.726;10.390;2023-04-25T00:46:00;99681.84;;;12.61;100.00
59608;BME280;45426;44.726;10.390;2023-04-25T00:48:26;99693.25;;;12.44;100.00
59608;BME280;45426;44.726;10.390;2023-04-25T00:50:53;99702.97;;;12.45;100.00
59608;BME280;45426;44.726;10.390;2023-04-25T00:53:24;99692.94;;;12.49;100.00
59608;BME280;45426;44.726;10.390;2023-04-25T00:55:50;99682.91;;;11.91;100.00
59608;BME280;45426;44.726;10.390;2023-04-25T00:58:19;99685.09;;;11.46;100.00
59608;BME280;45426;44.726;10.390;2023-04-25T01:00:46;99677.56;;;12.37;100.00
59608;BME280;45426;44.726;10.390;2023-04-25T01:03:12;99677.84;;;12.32;100.00
59608;BME280;45426;44.726;10.390;2023-04-25T01:05:40;99680.22;;;12.34;100.00
59608;BME280;45426;44.726;10.390;2023-04-25T01:08:06;99679.13;;;12.61;100.00
59608;BME280;45426;44.726;10.390;2023-04-25T01:10:32;99678.03;;;12.43;100.00
59608;BME280;45426;44.726;10.390;2023-04-25T01:12:57;99678.16;;;12.73;100.00
59608;BME280;45426;44.726;10.390;2023-04-25T01:15:23;99680.94;;;12.54;100.00
59608;BME280;45426;44.726;10.390;2023-04-25T01:17:48;99680.81;;;12.70;100.00
59608;BME280;45426;44.726;10.390;2023-04-25T01:20:15;99673.97;;;12.10;100.00
59608;BME280;45426;44.726;10.390;2023-04-25T01:22:41;99675.16;;;11.74;100.00
59608;BME280;45426;44.726;10.390;2023-04-25T01:25:07;99678.53;;;12.06;100.00
59608;BME280;45426;44.726;10.390;2023-04-25T01:27:33;99674.56;;;12.23;100.00
59608;BME280;45426;44.726;10.390;2023-04-25T01:30:00;99685.75;;;11.59;100.00
59608;BME280;45426;44.726;10.390;2023-04-25T01:32:26;99682.00;;;12.03;100.00
59608;BME280;45426;44.726;10.390;2023-04-25T01:34:52;99683.59;;;11.69;100.00
59608;BME280;45426;44.726;10.390;2023-04-25T01:37:17;99686.19;;;12.20;100.00
59608;BME280;45426;44.726;10.390;2023-04-25T01:39:43;99681.13;;;11.24;100.00
59608;BME280;45426;44.726;10.390;2023-04-25T01:42:08;99677.25;;;11.80;100.00
59608;BME280;45426;44.726;10.390;2023-04-25T01:44:34;99687.56;;;10.84;100.00
59608;BME280;45426;44.726;10.390;2023-04-25T01:46:59;99687.22;;;11.02;100.00
59608;BME280;45426;44.726;10.390;2023-04-25T01:49:25;99687.66;;;10.88;100.00
59608;BME280;45426;44.726;10.390;2023-04-25T01:51:50;99690.53;;;10.32;100.00
59608;BME280;45426;44.726;10.390;2023-04-25T01:54:16;99700.72;;;10.35;100.00
59608;BME280;45426;44.726;10.390;2023-04-25T01:56:43;99694.03;;;10.96;100.00
59608;BME280;45426;44.726;10.390;2023-04-25T01:59:09;99689.13;;;11.01;100.00
59608;BME280;45426;44.726;10.390;2023-04-25T02:01:34;99700.81;;;10.86;100.00
59608;BME280;45426;44.726;10.390;2023-04-25T02:04:00;99688.22;;;11.29;100.00
59608;BME280;45426;44.726;10.390;2023-04-25T02:06:25;99690.31;;;10.24;100.00
59608;BME280;45426;44.726;10.390;2023-04-25T02:08:51;99686.63;;;10.17;100.00
59608;BME280;45426;44.726;10.390;2023-04-25T02:11:16;99692.41;;;9.87;100.00
59608;BME280;45426;44.726;10.390;2023-04-25T02:13:42;99696.84;;;9.79;100.00
59608;BME280;45426;44.726;10.390;2023-04-25T02:16:07;99695.06;;;10.27;100.00
59608;BME280;45426;44.726;10.390;2023-04-25T02:18:33;99695.16;;;9.75;100.00
59608;BME280;45426;44.726;10.390;2023-04-25T02:21:01;99698.66;;;9.75;100.00
59608;BME280;45426;44.726;10.390;2023-04-25T02:23:27;99691.25;;;9.60;100.00
59608;BME280;45426;44.726;10.390;2023-04-25T02:25:53;99708.13;;;9.41;100.00
59608;BME280;45426;44.726;10.390;2023-04-25T02:28:20;99704.38;;;9.45;100.00
59608;BME280;45426;44.726;10.390;2023-04-25T02:30:45;99693.47;;;9.70;100.00
59608;BME280;45426;44.726;10.390;2023-04-25T02:33:11;99690.81;;;10.14;100.00
59608;BME280;45426;44.726;10.390;2023-04-25T02:35:36;99695.81;;;10.56;100.00
59608;BME280;45426;44.726;10.390;2023-04-25T02:38:02;99687.19;;;11.18;100.00
59608;BME280;45426;44.726;10.390;2023-04-25T02:40:27;99676.44;;;11.41;100.00
59608;BME280;45426;44.726;10.390;2023-04-25T02:42:52;99680.16;;;10.21;100.00
59608;BME280;45426;44.726;10.390;2023-04-25T02:45:18;99690.75;;;9.05;100.00
59608;BME280;45426;44.726;10.390;2023-04-25T02:47:43;99689.63;;;9.18;100.00
59608;BME280;45426;44.726;10.390;2023-04-25T02:50:09;99677.16;;;9.54;100.00
59608;BME280;45426;44.726;10.390;2023-04-25T02:52:34;99669.72;;;9.39;100.00
59608;BME280;45426;44.726;10.390;2023-04-25T02:55:00;99669.06;;;9.70;100.00
59608;BME280;45426;44.726;10.390;2023-04-25T02:57:25;99665.56;;;9.98;100.00
59608;BME280;45426;44.726;10.390;2023-04-25T02:59:51;99655.25;;;10.79;100.00
59608;BME280;45426;44.726;10.390;2023-04-25T03:02:16;99640.97;;;10.51;100.00
59608;BME280;45426;44.726;10.390;2023-04-25T03:04:42;99645.88;;;10.61;100.00
59608;BME280;45426;44.726;10.390;2023-04-25T03:07:07;99637.47;;;11.37;100.00
59608;BME280;45426;44.726;10.390;2023-04-25T03:09:33;99626.91;;;11.32;100.00
59608;BME280;45426;44.726;10.390;2023-04-25T03:11:58;99631.94;;;11.14;100.00
59608;BME280;45426;44.726;10.390;2023-04-25T03:14:23;99620.09;;;11.41;100.00
59608;BME280;45426;44.726;10.390;2023-04-25T03:16:49;99636.97;;;9.72;100.00
59608;BME280;45426;44.726;10.390;2023-04-25T03:19:14;99643.84;;;8.18;100.00
59608;BME280;45426;44.726;10.390;2023-04-25T03:21:42;99644.63;;;8.64;100.00
59608;BME280;45426;44.726;10.390;2023-04-25T03:24:08;99641.47;;;9.40;100.00
59608;BME280;45426;44.726;10.390;2023-04-25T03:26:33;99635.31;;;10.27;100.00
59608;BME280;45426;44.726;10.390;2023-04-25T03:28:59;99631.03;;;10.26;100.00
59608;BME280;45426;44.726;10.390;2023-04-25T03:31:24;99634.72;;;10.66;100.00
59608;BME280;45426;44.726;10.390;2023-04-25T03:33:50;99639.22;;;10.58;100.00
59608;BME280;45426;44.726;10.390;2023-04-25T03:36:15;99636.91;;;9.56;100.00
59608;BME280;45426;44.726;10.390;2023-04-25T03:38:40;99637.81;;;10.33;100.00
59608;BME280;45426;44.726;10.390;2023-04-25T03:41:09;99641.59;;;10.00;100.00
59608;BME280;45426;44.726;10.390;2023-04-25T03:43:34;99633.06;;;10.29;100.00
59608;BME280;45426;44.726;10.390;2023-04-25T03:46:00;99635.78;;;9.85;100.00
59608;BME280;45426;44.726;10.390;2023-04-25T03:48:26;99643.06;;;9.41;100.00
59608;BME280;45426;44.726;10.390;2023-04-25T03:50:52;99630.03;;;10.03;100.00
59608;BME280;45426;44.726;10.390;2023-04-25T03:53:18;99639.78;;;9.35;100.00
59608;BME280;45426;44.726;10.390;2023-04-25T03:55:43;99644.47;;;8.98;100.00
59608;BME280;45426;44.726;10.390;2023-04-25T03:58:09;99639.81;;;9.23;100.00
59608;BME280;45426;44.726;10.390;2023-04-25T04:00:35;99643.34;;;10.08;100.00
59608;BME280;45426;44.726;10.390;2023-04-25T04:03:01;99651.22;;;10.57;100.00
59608;BME280;45426;44.726;10.390;2023-04-25T04:05:26;99649.94;;;10.23;100.00
59608;BME280;45426;44.726;10.390;2023-04-25T04:07:52;99639.91;;;10.39;100.00
59608;BME280;45426;44.726;10.390;2023-04-25T04:10:18;99643.69;;;10.66;100.00
59608;BME280;45426;44.726;10.390;2023-04-25T04:12:43;99649.28;;;9.98;100.00
59608;BME280;45426;44.726;10.390;2023-04-25T04:15:09;99658.34;;;10.18;100.00
59608;BME280;45426;44.726;10.390;2023-04-25T04:17:35;99656.13;;;10.52;100.00
59608;BME280;45426;44.726;10.390;2023-04-25T04:20:01;99642.41;;;10.96;100.00
59608;BME280;45426;44.726;10.390;2023-04-25T04:22:28;99656.50;;;10.22;100.00
59608;BME280;45426;44.726;10.390;2023-04-25T04:24:54;99648.16;;;10.75;100.00
59608;BME280;45426;44.726;10.390;2023-04-25T04:27:22;99654.22;;;11.03;100.00
59608;BME280;45426;44.726;10.390;2023-04-25T04:29:47;99661.47;;;10.48;100.00
59608;BME280;45426;44.726;10.390;2023-04-25T04:32:14;99659.78;;;10.91;100.00
59608;BME280;45426;44.726;10.390;2023-04-25T04:34:39;99661.84;;;10.62;100.00
59608;BME280;45426;44.726;10.390;2023-04-25T04:37:06;99669.38;;;10.53;100.00
59608;BME280;45426;44.726;10.390;2023-04-25T04:39:33;99657.25;;;10.98;100.00
59608;BME280;45426;44.726;10.390;2023-04-25T04:41:58;99670.75;;;10.79;100.00
59608;BME280;45426;44.726;10.390;2023-04-25T04:44:24;99683.38;;;10.87;100.00
59608;BME280;45426;44.726;10.390;2023-04-25T04:46:51;99680.03;;;11.10;100.00
59608;BME280;45426;44.726;10.390;2023-04-25T04:49:16;99687.84;;;11.31;100.00
59608;BME280;45426;44.726;10.390;2023-04-25T04:51:42;99692.44;;;11.11;100.00
59608;BME280;45426;44.726;10.390;2023-04-25T04:54:09;99688.19;;;10.94;100.00
59608;BME280;45426;44.726;10.390;2023-04-25T04:56:35;99689.44;;;10.64;100.00
59608;BME280;45426;44.726;10.390;2023-04-25T04:59:00;99701.06;;;10.49;100.00
59608;BME280;45426;44.726;10.390;2023-04-25T05:01:28;99701.69;;;10.74;100.00
59608;BME280;45426;44.726;10.390;2023-04-25T05:03:55;99697.72;;;11.03;100.00
59608;BME280;45426;44.726;10.390;2023-04-25T05:06:25;99696.09;;;11.34;100.00
59608;BME280;45426;44.726;10.390;2023-04-25T05:08:51;99695.31;;;11.34;100.00
59608;BME280;45426;44.726;10.390;2023-04-25T05:11:16;99705.13;;;11.38;100.00
59608;BME280;45426;44.726;10.390;2023-04-25T05:13:41;99713.75;;;11.08;100.00
59608;BME280;45426;44.726;10.390;2023-04-25T05:16:07;99708.41;;;11.63;100.00
59608;BME280;45426;44.726;10.390;2023-04-25T05:18:32;99713.75;;;11.60;100.00
59608;BME280;45426;44.726;10.390;2023-04-25T05:20:58;99711.28;;;11.35;100.00
59608;BME280;45426;44.726;10.390;2023-04-25T05:23:23;99715.56;;;11.72;100.00
59608;BME280;45426;44.726;10.390;2023-04-25T05:25:48;99722.25;;;12.13;100.00
59608;BME280;45426;44.726;10.390;2023-04-25T05:28:14;99726.50;;;12.34;100.00
59608;BME280;45426;44.726;10.390;2023-04-25T05:30:39;99727.44;;;12.41;100.00
59608;BME280;45426;44.726;10.390;2023-04-25T05:33:05;99735.59;;;12.41;100.00
59608;BME280;45426;44.726;10.390;2023-04-25T05:35:30;99736.19;;;12.31;100.00
59608;BME280;45426;44.726;10.390;2023-04-25T05:37:56;99745.78;;;12.45;100.00
59608;BME280;45426;44.726;10.390;2023-04-25T05:40:21;99748.34;;;12.80;100.00
59608;BME280;45426;44.726;10.390;2023-04-25T05:42:47;99753.94;;;12.87;100.00
59608;BME280;45426;44.726;10.390;2023-04-25T05:45:12;99738.81;;;13.16;100.00
59608;BME280;45426;44.726;10.390;2023-04-25T05:47:38;99740.63;;;13.09;100.00
59608;BME280;45426;44.726;10.390;2023-04-25T05:50:03;99745.91;;;12.98;100.00
59608;BME280;45426;44.726;10.390;2023-04-25T05:52:29;99751.91;;;13.07;100.00
59608;BME280;45426;44.726;10.390;2023-04-25T05:54:54;99752.94;;;12.99;100.00
59608;BME280;45426;44.726;10.390;2023-04-25T05:57:25;99762.03;;;13.30;100.00
59608;BME280;45426;44.726;10.390;2023-04-25T05:59:51;99769.22;;;13.18;100.00
59608;BME280;45426;44.726;10.390;2023-04-25T06:02:17;99772.88;;;13.26;100.00
59608;BME280;45426;44.726;10.390;2023-04-25T06:04:43;99775.59;;;13.49;100.00
59608;BME280;45426;44.726;10.390;2023-04-25T06:07:08;99773.72;;;13.07;100.00
59608;BME280;45426;44.726;10.390;2023-04-25T06:09:34;99774.91;;;13.56;100.00
59608;BME280;45426;44.726;10.390;2023-04-25T06:11:59;99785.13;;;13.36;100.00
59608;BME280;45426;44.726;10.390;2023-04-25T06:14:25;99776.94;;;13.36;100.00
59608;BME280;45426;44.726;10.390;2023-04-25T06:16:50;99779.94;;;13.54;100.00
59608;BME280;45426;44.726;10.390;2023-04-25T06:19:15;99775.03;;;13.97;100.00
59608;BME280;45426;44.726;10.390;2023-04-25T06:21:43;99793.06;;;13.71;100.00
59608;BME280;45426;44.726;10.390;2023-04-25T06:24:08;99775.28;;;13.85;100.00
59608;BME280;45426;44.726;10.390;2023-04-25T06:26:34;99781.22;;;13.90;100.00
59608;BME280;45426;44.726;10.390;2023-04-25T06:28:59;99790.34;;;13.71;100.00
59608;BME280;45426;44.726;10.390;2023-04-25T06:31:25;99789.50;;;13.97;100.00
59608;BME280;45426;44.726;10.390;2023-04-25T06:33:50;99787.16;;;14.30;100.00
59608;BME280;45426;44.726;10.390;2023-04-25T06:36:15;99791.59;;;14.42;100.00
59608;BME280;45426;44.726;10.390;2023-04-25T06:38:41;99800.03;;;14.29;100.00
59608;BME280;45426;44.726;10.390;2023-04-25T06:41:06;99795.59;;;14.17;100.00
59608;BME280;45426;44.726;10.390;2023-04-25T06:43:32;99788.66;;;14.24;100.00
59608;BME280;45426;44.726;10.390;2023-04-25T06:45:59;99807.19;;;13.77;100.00
59608;BME280;45426;44.726;10.390;2023-04-25T06:48:26;99800.47;;;14.65;100.00
59608;BME280;45426;44.726;10.390;2023-04-25T06:50:52;99794.03;;;14.16;100.00
59608;BME280;45426;44.726;10.390;2023-04-25T06:53:20;99787.25;;;14.03;100.00
59608;BME280;45426;44.726;10.390;2023-04-25T06:55:45;99792.66;;;14.33;100.00
59608;BME280;45426;44.726;10.390;2023-04-25T06:58:11;99793.59;;;14.82;100.00
59608;BME280;45426;44.726;10.390;2023-04-25T07:00:36;99793.22;;;14.46;100.00
59608;BME280;45426;44.726;10.390;2023-04-25T07:03:02;99804.59;;;14.18;100.00
59608;BME280;45426;44.726;10.390;2023-04-25T07:05:27;99794.63;;;14.67;100.00
59608;BME280;45426;44.726;10.390;2023-04-25T07:07:53;99797.75;;;15.10;100.00
59608;BME280;45426;44.726;10.390;2023-04-25T07:10:18;99803.78;;;14.85;100.00
59608;BME280;45426;44.726;10.390;2023-04-25T07:12:44;99804.25;;;14.91;100.00
59608;BME280;45426;44.726;10.390;2023-04-25T07:15:09;99809.84;;;13.73;100.00
59608;BME280;45426;44.726;10.390;2023-04-25T07:17:36;99800.50;;;14.69;100.00
59608;BME280;45426;44.726;10.390;2023-04-25T07:20:02;99799.13;;;14.52;100.00
59608;BME280;45426;44.726;10.390;2023-04-25T07:22:29;99802.75;;;13.95;100.00
59608;BME280;45426;44.726;10.390;2023-04-25T07:24:55;99798.19;;;14.37;100.00
59608;BME280;45426;44.726;10.390;2023-04-25T07:27:21;99809.66;;;13.89;100.00
59608;BME280;45426;44.726;10.390;2023-04-25T07:29:46;99806.91;;;13.59;100.00
59608;BME280;45426;44.726;10.390;2023-04-25T07:32:12;99806.72;;;14.66;100.00
59608;BME280;45426;44.726;10.390;2023-04-25T07:34:38;99798.38;;;14.21;100.00
59608;BME280;45426;44.726;10.390;2023-04-25T07:37:04;99809.94;;;14.41;100.00
59608;BME280;45426;44.726;10.390;2023-04-25T07:39:30;99822.22;;;13.94;100.00
59608;BME280;45426;44.726;10.390;2023-04-25T07:41:56;99815.72;;;14.70;100.00
59608;BME280;45426;44.726;10.390;2023-04-25T07:44:23;99811.59;;;14.87;100.00
59608;BME280;45426;44.726;10.390;2023-04-25T07:46:49;99817.34;;;15.16;100.00
59608;BME280;45426;44.726;10.390;2023-04-25T07:49:15;99819.06;;;14.90;100.00
59608;BME280;45426;44.726;10.390;2023-04-25T07:51:40;99826.41;;;15.23;100.00
59608;BME280;45426;44.726;10.390;2023-04-25T07:54:09;99818.91;;;15.17;100.00
59608;BME280;45426;44.726;10.390;2023-04-25T07:56:36;99828.94;;;16.05;100.00
59608;BME280;45426;44.726;10.390;2023-04-25T07:59:02;99827.97;;;16.57;100.00
59608;BME280;45426;44.726;10.390;2023-04-25T08:01:27;99831.59;;;16.90;100.00
59608;BME280;45426;44.726;10.390;2023-04-25T08:03:53;99832.38;;;16.90;100.00
59608;BME280;45426;44.726;10.390;2023-04-25T08:06:18;99831.53;;;16.61;100.00
59608;BME280;45426;44.726;10.390;2023-04-25T08:08:45;99824.56;;;17.42;100.00
59608;BME280;45426;44.726;10.390;2023-04-25T08:11:10;99829.84;;;18.39;100.00
59608;BME280;45426;44.726;10.390;2023-04-25T08:13:36;99826.50;;;17.92;100.00
59608;BME280;45426;44.726;10.390;2023-04-25T08:16:01;99826.47;;;18.91;100.00
59608;BME280;45426;44.726;10.390;2023-04-25T08:18:27;99822.16;;;18.02;100.00
59608;BME280;45426;44.726;10.390;2023-04-25T08:20:53;99822.22;;;17.41;100.00
59608;BME280;45426;44.726;10.390;2023-04-25T08:23:18;99826.66;;;18.52;100.00
59608;BME280;45426;44.726;10.390;2023-04-25T08:25:43;99837.97;;;18.68;100.00
59608;BME280;45426;44.726;10.390;2023-04-25T08:28:09;99837.50;;;16.99;100.00
59608;BME280;45426;44.726;10.390;2023-04-25T08:30:34;99843.50;;;16.20;100.00
59608;BME280;45426;44.726;10.390;2023-04-25T08:33:00;99846.13;;;17.08;100.00
59608;BME280;45426;44.726;10.390;2023-04-25T08:35:25;99850.06;;;17.29;100.00
59608;BME280;45426;44.726;10.390;2023-04-25T08:37:52;99850.44;;;17.16;100.00
59608;BME280;45426;44.726;10.390;2023-04-25T08:40:19;99848.91;;;17.12;100.00
59608;BME280;45426;44.726;10.390;2023-04-25T08:42:52;99859.19;;;16.27;100.00
59608;BME280;45426;44.726;10.390;2023-04-25T08:45:18;99866.44;;;15.90;100.00
59608;BME280;45426;44.726;10.390;2023-04-25T08:47:45;99860.94;;;15.87;100.00
59608;BME280;45426;44.726;10.390;2023-04-25T08:50:11;99874.50;;;16.35;100.00
59608;BME280;45426;44.726;10.390;2023-04-25T08:52:42;99872.25;;;16.62;100.00
59608;BME280;45426;44.726;10.390;2023-04-25T08:55:10;99868.38;;;16.74;100.00
59608;BME280;45426;44.726;10.390;2023-04-25T08:57:37;99863.81;;;17.36;100.00
59608;BME280;45426;44.726;10.390;2023-04-25T09:00:03;99875.72;;;16.48;100.00
59608;BME280;45426;44.726;10.390;2023-04-25T09:02:29;99872.22;;;16.59;100.00
59608;BME280;45426;44.726;10.390;2023-04-25T09:04:55;99877.06;;;15.99;100.00
59608;BME280;45426;44.726;10.390;2023-04-25T09:07:23;99881.00;;;16.05;100.00
59608;BME280;45426;44.726;10.390;2023-04-25T09:09:48;99879.25;;;16.49;100.00
59608;BME280;45426;44.726;10.390;2023-04-25T09:12:13;99884.50;;;16.02;100.00
59608;BME280;45426;44.726;10.390;2023-04-25T09:14:39;99882.00;;;16.53;100.00
59608;BME280;45426;44.726;10.390;2023-04-25T09:17:05;99890.38;;;16.88;100.00
59608;BME280;45426;44.726;10.390;2023-04-25T09:19:36;99886.25;;;16.39;100.00
59608;BME280;45426;44.726;10.390;2023-04-25T09:22:05;99894.75;;;16.13;100.00
59608;BME280;45426;44.726;10.390;2023-04-25T09:24:43;99889.88;;;16.58;100.00
59608;BME280;45426;44.726;10.390;2023-04-25T09:27:12;99891.84;;;16.61;100.00
59608;BME280;45426;44.726;10.390;2023-04-25T09:29:40;99892.69;;;16.72;100.00
59608;BME280;45426;44.726;10.390;2023-04-25T09:32:20;99889.13;;;15.91;100.00
59608;BME280;45426;44.726;10.390;2023-04-25T09:34:50;99894.97;;;16.56;100.00
59608;BME280;45426;44.726;10.390;2023-04-25T09:37:24;99895.69;;;16.49;100.00
59608;BME280;45426;44.726;10.390;2023-04-25T09:39:53;99882.56;;;16.98;100.00
59608;BME280;45426;44.726;10.390;2023-04-25T09:42:22;99882.53;;;16.87;100.00
59608;BME280;45426;44.726;10.390;2023-04-25T09:44:49;99885.81;;;16.30;100.00
59608;BME280;45426;44.726;10.390;2023-04-25T09:47:16;99881.03;;;17.25;100.00
59608;BME280;45426;44.726;10.390;2023-04-25T09:49:43;99882.63;;;17.26;100.00
59608;BME280;45426;44.726;10.390;2023-04-25T09:52:14;99877.53;;;17.36;100.00
59608;BME280;45426;44.726;10.390;2023-04-25T09:54:40;99870.41;;;18.14;100.00
59608;BME280;45426;44.726;10.390;2023-04-25T09:57:14;99869.13;;;18.40;100.00
59608;BME280;45426;44.726;10.390;2023-04-25T09:59:44;99870.84;;;18.05;100.00
59608;BME280;45426;44.726;10.390;2023-04-25T10:02:11;99871.56;;;16.83;100.00
59608;BME280;45426;44.726;10.390;2023-04-25T10:04:38;99869.28;;;17.64;100.00
59608;BME280;45426;44.726;10.390;2023-04-25T10:07:06;99870.00;;;16.82;100.00
59608;BME280;45426;44.726;10.390;2023-04-25T10:09:32;99871.59;;;17.05;100.00
59608;BME280;45426;44.726;10.390;2023-04-25T10:12:02;99868.91;;;17.52;100.00
59608;BME280;45426;44.726;10.390;2023-04-25T10:14:30;99874.75;;;17.07;100.00
59608;BME280;45426;44.726;10.390;2023-04-25T10:16:57;99867.69;;;17.99;100.00
59608;BME280;45426;44.726;10.390;2023-04-25T10:19:24;99867.72;;;17.92;100.00
59608;BME280;45426;44.726;10.390;2023-04-25T10:21:52;99863.78;;;17.64;100.00
59608;BME280;45426;44.726;10.390;2023-04-25T10:24:19;99855.16;;;17.41;100.00
59608;BME280;45426;44.726;10.390;2023-04-25T10:26:46;99856.34;;;17.90;100.00
59608;BME280;45426;44.726;10.390;2023-04-25T10:29:12;99862.56;;;15.99;100.00
59608;BME280;45426;44.726;10.390;2023-04-25T10:31:47;99840.25;;;17.27;100.00
59608;BME280;45426;44.726;10.390;2023-04-25T10:34:12;99836.31;;;17.82;100.00
59608;BME280;45426;44.726;10.390;2023-04-25T10:36:38;99831.22;;;17.74;100.00
59608;BME280;45426;44.726;10.390;2023-04-25T10:39:07;99822.56;;;17.86;100.00
59608;BME280;45426;44.726;10.390;2023-04-25T10:41:47;99830.06;;;17.32;100.00
59608;BME280;45426;44.726;10.390;2023-04-25T10:44:14;99831.22;;;17.88;100.00
59608;BME280;45426;44.726;10.390;2023-04-25T10:46:40;99826.13;;;17.65;100.00
59608;BME280;45426;44.726;10.390;2023-04-25T10:49:08;99831.25;;;17.41;100.00
59608;BME280;45426;44.726;10.390;2023-04-25T10:51:34;99831.25;;;17.31;100.00
59608;BME280;45426;44.726;10.390;2023-04-25T10:54:06;99832.66;;;18.29;100.00
59608;BME280;45426;44.726;10.390;2023-04-25T10:56:40;99818.91;;;18.21;100.00
59608;BME280;45426;44.726;10.390;2023-04-25T11:04:04;99825.34;;;17.72;100.00
59608;BME280;45426;44.726;10.390;2023-04-25T11:09:17;99819.75;;;18.15;100.00
59608;BME280;45426;44.726;10.390;2023-04-25T11:11:43;99826.16;;;17.33;100.00
59608;BME280;45426;44.726;10.390;2023-04-25T11:14:19;99826.09;;;17.76;100.00
59608;BME280;45426;44.726;10.390;2023-04-25T11:16:45;99824.53;;;17.93;100.00
59608;BME280;45426;44.726;10.390;2023-04-25T11:19:10;99815.13;;;17.69;100.00
59608;BME280;45426;44.726;10.390;2023-04-25T11:21:36;99811.13;;;18.06;100.00
59608;BME280;45426;44.726;10.390;2023-04-25T11:24:02;99821.44;;;17.40;100.00
59608;BME280;45426;44.726;10.390;2023-04-25T11:26:28;99809.09;;;18.31;100.00
59608;BME280;45426;44.726;10.390;2023-04-25T11:28:58;99816.88;;;19.10;100.00
59608;BME280;45426;44.726;10.390;2023-04-25T11:31:27;99806.41;;;18.13;100.00
59608;BME280;45426;44.726;10.390;2023-04-25T11:33:58;99809.56;;;18.08;100.00
59608;BME280;45426;44.726;10.390;2023-04-25T11:36:24;99812.25;;;18.26;100.00
59608;BME280;45426;44.726;10.390;2023-04-25T11:38:51;99796.00;;;18.50;100.00
59608;BME280;45426;44.726;10.390;2023-04-25T11:41:18;99795.25;;;19.09;100.00
59608;BME280;45426;44.726;10.390;2023-04-25T11:43:43;99789.63;;;18.71;100.00
59608;BME280;45426;44.726;10.390;2023-04-25T11:46:09;99804.16;;;17.58;100.00
59608;BME280;45426;44.726;10.390;2023-04-25T11:48:42;99791.06;;;18.19;100.00
59608;BME280;45426;44.726;10.390;2023-04-25T11:51:07;99799.50;;;19.66;100.00
59608;BME280;45426;44.726;10.390;2023-04-25T11:53:35;99791.31;;;18.47;100.00
59608;BME280;45426;44.726;10.390;2023-04-25T11:56:01;99808.22;;;19.12;100.00
59608;BME280;45426;44.726;10.390;2023-04-25T11:58:27;99806.72;;;18.30;100.00
59608;BME280;45426;44.726;10.390;2023-04-25T12:00:52;99789.91;;;18.13;100.00
59608;BME280;45426;44.726;10.390;2023-04-25T12:03:18;99785.88;;;18.32;100.00
59608;BME280;45426;44.726;10.390;2023-04-25T12:05:45;99782.03;;;18.15;100.00
59608;BME280;45426;44.726;10.390;2023-04-25T12:08:14;99775.47;;;18.72;100.00
59608;BME280;45426;44.726;10.390;2023-04-25T12:10:41;99774.97;;;19.37;100.00
59608;BME280;45426;44.726;10.390;2023-04-25T12:13:26;99785.28;;;17.96;100.00
59608;BME280;45426;44.726;10.390;2023-04-25T12:15:56;99775.38;;;18.79;100.00
59608;BME280;45426;44.726;10.390;2023-04-25T12:18:25;99775.28;;;18.97;100.00
59608;BME280;45426;44.726;10.390;2023-04-25T12:20:54;99765.88;;;19.40;100.00
59608;BME280;45426;44.726;10.390;2023-04-25T12:23:29;99767.56;;;19.30;100.00
59608;BME280;45426;44.726;10.390;2023-04-25T12:25:55;99775.72;;;19.37;100.00
59608;BME280;45426;44.726;10.390;2023-04-25T12:28:23;99763.69;;;19.20;100.00
59608;BME280;45426;44.726;10.390;2023-04-25T12:30:56;99758.88;;;18.83;100.00
59608;BME280;45426;44.726;10.390;2023-04-25T12:33:23;99767.56;;;19.30;100.00
59608;BME280;45426;44.726;10.390;2023-04-25T12:35:49;99756.56;;;19.27;100.00
59608;BME280;45426;44.726;10.390;2023-04-25T12:38:27;99765.03;;;19.01;100.00
59608;BME280;45426;44.726;10.390;2023-04-25T12:40:54;99746.69;;;19.33;100.00
59608;BME280;45426;44.726;10.390;2023-04-25T12:43:20;99753.34;;;18.87;100.00
59608;BME280;45426;44.726;10.390;2023-04-25T12:45:53;99748.41;;;19.16;100.00